createdAt,value
2023-02-22T02:34:01.911Z,29.25
2023-02-22T02:42:01.915Z,29.23
2023-02-22T02:56:01.743Z,29.18
2023-02-22T02:57:01.780Z,29.17
2023-02-22T02:58:01.815Z,29.17
2023-02-22T03:00:01.926Z,29.13
2023-02-22T03:01:01.894Z,29.14
2023-02-22T03:02:01.930Z,29.14
2023-02-22T03:03:01.957Z,29.11
2023-02-22T03:05:02.047Z,29.12
2023-02-22T03:06:02.063Z,29.10
2023-02-22T03:07:02.153Z,29.09
2023-02-22T03:08:02.128Z,29.09
2023-02-22T03:09:02.154Z,29.11
2023-02-22T03:10:02.184Z,29.10
2023-02-22T03:11:02.233Z,29.09
2023-02-22T03:12:02.306Z,29.08
2023-02-22T03:13:02.261Z,29.08
2023-02-22T03:14:02.264Z,29.07
2023-02-22T03:15:02.272Z,29.06
2023-02-22T03:16:02.317Z,29.07
2023-02-22T03:17:02.296Z,29.07
2023-02-22T03:18:02.303Z,29.04
2023-02-22T03:19:02.307Z,29.05
2023-02-22T03:20:02.361Z,29.04
2023-02-22T03:21:02.327Z,29.02
2023-02-22T04:13:03.201Z,28.78
2023-02-22T06:29:11.745Z,29.84
2023-02-22T06:30:13.248Z,30.11
2023-02-22T06:31:11.913Z,30.29
2023-02-22T06:32:12.122Z,30.31
2023-02-22T06:33:12.009Z,30.54
2023-02-22T06:34:12.120Z,30.84
2023-02-22T06:35:12.115Z,31.04
2023-02-22T06:36:12.175Z,31.20
2023-02-22T06:37:12.212Z,31.52
2023-02-22T06:38:12.246Z,31.70
2023-02-22T06:39:12.304Z,32.06
2023-02-22T06:40:12.306Z,32.36
2023-02-22T06:41:12.338Z,32.57
2023-02-22T06:42:12.387Z,32.67
2023-02-22T06:43:12.512Z,32.92
2023-02-22T06:44:12.412Z,33.21
2023-02-22T06:45:12.429Z,33.32
2023-02-22T06:46:12.463Z,33.53
2023-02-22T06:47:12.475Z,33.70
2023-02-22T06:48:12.508Z,33.83
2023-02-22T06:49:13.006Z,34.04
2023-02-22T06:50:13.499Z,34.24
2023-02-22T06:51:12.573Z,34.40
2023-02-22T06:52:12.581Z,34.62
2023-02-22T06:53:12.603Z,34.74
2023-02-22T06:54:12.635Z,34.90
2023-02-22T06:55:13.512Z,34.95
2023-02-22T06:56:13.507Z,34.96
2023-02-22T06:57:12.681Z,32.61
2023-02-22T06:58:13.018Z,31.84
2023-02-22T06:59:12.791Z,30.62
2023-02-22T07:00:12.854Z,30.01
2023-02-22T07:01:12.942Z,29.27
2023-02-22T07:02:12.933Z,28.67
2023-02-22T07:03:12.990Z,28.13
2023-02-22T07:04:12.984Z,27.59
2023-02-22T07:05:12.982Z,27.90
2023-02-22T07:06:13.007Z,28.01
2023-02-22T07:07:13.044Z,29.49
2023-02-22T07:08:13.063Z,30.78
2023-02-22T07:09:13.087Z,30.79
2023-02-22T07:10:13.097Z,30.85
2023-02-22T07:11:13.103Z,30.91
2023-02-22T07:12:13.138Z,30.97
2023-02-22T07:13:14.019Z,31.06
2023-02-22T07:14:13.266Z,31.24
2023-02-22T07:15:13.320Z,31.34
2023-02-22T07:16:13.404Z,31.48
2023-02-22T07:17:13.446Z,31.62
2023-02-22T07:18:13.517Z,31.78
2023-02-22T07:19:13.533Z,31.91
2023-02-22T07:20:13.573Z,32.12
2023-02-22T07:21:13.603Z,32.26
2023-02-22T07:22:13.633Z,32.46
2023-02-22T07:23:13.653Z,32.64
2023-02-22T07:24:13.676Z,32.77
2023-02-22T07:25:13.693Z,32.93
2023-02-22T07:26:13.722Z,33.20
2023-02-22T07:27:13.720Z,33.29
2023-02-22T07:28:13.731Z,33.50
2023-02-22T07:29:14.449Z,33.75
2023-02-22T07:30:13.768Z,33.85
2023-02-22T07:31:13.867Z,34.00
2023-02-22T07:32:13.860Z,34.05
2023-02-22T07:33:13.847Z,34.12
2023-02-22T07:34:13.790Z,34.26
2023-02-22T07:35:13.795Z,34.47
2023-02-22T07:36:13.802Z,34.62
2023-02-22T07:37:13.800Z,34.72
2023-02-22T07:38:13.810Z,35.05
2023-02-22T07:39:13.817Z,35.07
2023-02-22T07:40:13.820Z,35.21
2023-02-22T07:41:13.879Z,35.34
2023-02-22T07:42:13.819Z,35.47
2023-02-22T07:43:13.823Z,35.71
2023-02-22T07:44:13.827Z,35.67
2023-02-22T07:45:13.823Z,35.82
2023-02-22T07:46:13.835Z,36.02
2023-02-22T07:47:13.853Z,36.12
2023-02-22T07:48:15.090Z,36.21
2023-02-22T07:49:13.846Z,36.34
2023-02-22T07:50:13.831Z,36.34
2023-02-22T07:51:14.919Z,36.44
2023-02-22T07:52:13.825Z,36.46
2023-02-22T07:53:13.824Z,36.60
2023-02-22T07:54:13.821Z,36.71
2023-02-22T07:55:13.818Z,36.80
2023-02-22T07:56:13.896Z,36.87
2023-02-22T07:57:13.803Z,36.96
2023-02-22T07:58:13.799Z,37.03
2023-02-22T07:59:13.805Z,37.23
2023-02-22T08:00:13.790Z,37.35
2023-02-22T08:01:13.787Z,37.51
2023-02-22T11:24:18.580Z,33.35
2023-02-22T11:25:18.585Z,33.31
2023-02-22T11:34:18.615Z,33.30
2023-02-22T14:35:28.612Z,33.81
2023-02-22T14:36:24.135Z,33.77
2023-02-22T14:37:23.132Z,33.82
2023-02-22T14:38:23.677Z,33.81
2023-02-22T14:39:23.136Z,33.80
2023-02-22T14:40:23.145Z,33.79
2023-02-22T14:41:23.156Z,33.78
2023-02-22T14:42:23.229Z,33.78
2023-02-22T14:43:23.150Z,33.79
2023-02-22T14:44:23.148Z,33.76
2023-02-22T14:45:23.152Z,33.79
2023-02-22T14:46:23.213Z,33.77
2023-02-22T14:47:23.260Z,33.76
2023-02-22T14:48:23.687Z,33.75
2023-02-22T14:49:23.331Z,33.78
2023-02-22T14:50:23.392Z,33.75
2023-02-22T14:51:26.485Z,33.76
2023-02-22T14:52:23.457Z,33.79
2023-02-22T14:53:23.454Z,33.77
2023-02-22T14:54:23.454Z,33.75
2023-02-22T14:55:23.452Z,33.75
2023-02-22T14:56:23.453Z,33.74
2023-02-22T14:57:23.469Z,33.75
2023-02-22T14:58:23.449Z,33.75
2023-02-22T14:59:23.451Z,33.74
2023-02-22T15:00:23.465Z,33.71
2023-02-22T15:01:27.156Z,33.73
2023-02-22T15:03:23.437Z,33.77
2023-02-22T15:04:23.451Z,33.75
2023-02-22T15:05:23.495Z,33.74
2023-02-22T15:08:23.407Z,33.75
2023-02-22T15:10:23.415Z,33.76
2023-02-22T15:11:23.455Z,33.74
2023-02-22T15:12:23.525Z,33.75
2023-02-22T15:13:23.566Z,33.77
2023-02-22T15:14:26.371Z,33.75
2023-02-22T15:15:23.629Z,33.78
2023-02-22T15:16:23.692Z,33.73
2023-02-22T15:17:23.642Z,33.77
2023-02-22T15:18:23.637Z,33.76
2023-02-22T15:19:23.640Z,33.75
2023-02-22T15:20:23.645Z,33.77
2023-02-22T15:21:23.645Z,33.78
2023-02-22T15:22:23.633Z,33.79
2023-02-22T15:23:23.657Z,33.77
2023-02-22T15:24:23.651Z,33.78
2023-02-22T15:25:23.654Z,33.74
2023-02-22T15:26:23.670Z,33.74
2023-02-22T15:27:23.837Z,33.74
2023-02-22T15:28:23.748Z,33.75
2023-02-22T15:29:23.692Z,33.76
2023-02-22T15:30:23.709Z,33.75
2023-02-22T15:31:23.708Z,33.75
2023-02-22T15:32:23.759Z,33.78
2023-02-22T15:33:23.868Z,33.79
2023-02-22T15:34:23.720Z,33.79
2023-02-22T15:35:23.740Z,33.77
2023-02-22T15:36:23.748Z,33.79
2023-02-22T15:37:23.758Z,33.81
2023-02-22T15:38:23.761Z,33.80
2023-02-22T15:39:23.766Z,33.79
2023-02-22T15:40:23.779Z,33.80
2023-02-22T15:41:23.792Z,33.81
2023-02-22T15:42:23.794Z,33.77
2023-02-22T15:43:23.804Z,33.79
2023-02-22T15:44:24.344Z,33.78
2023-02-22T18:39:33.260Z,33.76
2023-02-22T19:05:33.784Z,33.70
2023-02-22T19:06:33.133Z,33.67
2023-02-22T19:07:33.158Z,33.68
2023-02-22T19:08:33.160Z,33.68
2023-02-22T19:09:33.170Z,33.71
2023-02-22T19:10:33.192Z,33.69
2023-02-22T19:11:33.232Z,33.66
2023-02-22T19:12:33.227Z,33.67
2023-02-22T19:13:33.252Z,33.66
2023-02-22T19:14:33.260Z,33.65
2023-02-22T19:15:33.289Z,33.65
2023-02-22T19:16:33.462Z,33.65
2023-02-22T19:17:33.344Z,33.63
2023-02-22T19:18:33.312Z,33.65
2023-02-22T19:19:33.803Z,33.66
2023-02-22T19:20:33.334Z,33.65
2023-02-22T19:21:33.423Z,33.67
2023-02-22T19:22:33.366Z,33.63
2023-02-22T19:23:35.088Z,33.63
2023-02-22T19:24:33.393Z,33.65
2023-02-22T19:25:33.429Z,33.66
2023-02-22T19:26:34.337Z,33.63
2023-02-22T19:27:33.437Z,33.63
2023-02-22T19:28:33.458Z,33.61
2023-02-22T19:29:33.470Z,33.64
2023-02-22T19:30:33.514Z,33.62
2023-02-22T19:31:33.771Z,33.62
2023-02-22T19:32:33.717Z,33.77
2023-02-22T19:33:33.521Z,33.73
2023-02-22T19:34:33.549Z,33.71
2023-02-22T19:35:33.570Z,33.74
2023-02-22T19:36:33.677Z,33.74
2023-02-22T19:37:33.603Z,33.71
2023-02-22T19:38:33.609Z,33.70
2023-02-22T19:39:33.630Z,33.70
2023-02-22T19:40:33.648Z,33.67
2023-02-22T19:41:33.668Z,33.68
2023-02-22T19:42:33.698Z,33.67
2023-02-22T19:43:33.715Z,33.69
2023-02-22T19:44:33.719Z,33.67
2023-02-22T19:45:33.755Z,33.66
2023-02-22T19:46:33.756Z,33.77
2023-02-22T19:47:33.766Z,33.71
2023-02-22T19:48:33.797Z,33.71
2023-02-22T19:49:33.818Z,33.66
2023-02-22T19:50:33.840Z,33.68
2023-02-22T19:51:33.858Z,33.66
2023-02-22T19:52:33.878Z,33.68
2023-02-22T19:53:33.904Z,33.69
2023-02-22T19:59:34.001Z,33.63
2023-02-22T20:00:34.022Z,33.62
2023-02-22T20:01:34.042Z,33.60
2023-02-22T20:02:34.057Z,33.59
2023-02-22T20:03:34.138Z,33.58
2023-02-22T20:04:34.147Z,33.59
2023-02-22T20:05:34.107Z,33.64
2023-02-22T20:06:35.025Z,33.70
2023-02-22T20:07:34.146Z,33.72
2023-02-22T20:08:34.152Z,33.75
2023-02-22T20:09:34.189Z,33.70
2023-02-22T20:10:34.188Z,33.63
2023-02-22T20:11:34.196Z,33.66
2023-02-22T20:12:34.211Z,33.64
2023-02-22T20:13:34.799Z,33.60
2023-02-22T20:14:34.248Z,33.60
2023-02-22T20:15:34.269Z,33.63
2023-02-22T20:16:34.358Z,33.62
2023-02-22T20:17:34.315Z,33.58
2023-02-22T20:18:34.340Z,33.63
2023-02-22T20:19:34.368Z,33.60
2023-02-22T20:20:34.380Z,33.52
2023-02-22T20:21:34.393Z,33.47
2023-02-22T20:22:34.428Z,33.49
2023-02-22T20:23:34.435Z,33.50
2023-02-22T20:24:34.456Z,33.58
2023-02-22T20:25:34.479Z,33.50
2023-02-22T20:26:34.505Z,33.54
2023-02-22T20:27:34.524Z,33.48
2023-02-22T20:28:34.536Z,33.48
2023-02-22T20:29:34.552Z,33.43
2023-02-22T20:30:34.562Z,33.44
2023-02-22T20:31:34.680Z,33.42
2023-02-22T20:32:34.757Z,33.43
2023-02-22T20:33:34.798Z,33.42
2023-02-22T20:34:34.620Z,33.40
2023-02-22T20:35:34.647Z,33.39
2023-02-22T20:36:34.662Z,33.39
2023-02-22T20:37:34.673Z,33.37
2023-02-22T20:38:34.694Z,33.37
2023-02-22T20:39:34.766Z,33.35
2023-02-22T20:40:34.722Z,33.34
2023-02-22T20:41:34.750Z,33.35
2023-02-22T20:42:34.762Z,33.37
2023-02-22T20:43:34.791Z,33.34
2023-02-22T20:44:34.815Z,33.33
2023-02-22T20:45:34.862Z,33.31
2023-02-22T20:46:34.865Z,33.31
2023-02-22T20:47:34.875Z,33.31
2023-02-22T20:48:34.900Z,33.33
2023-02-22T20:49:34.965Z,33.33
2023-02-22T20:50:35.038Z,33.30
2023-02-22T20:51:34.997Z,33.33
2023-02-22T20:52:34.999Z,33.32
2023-02-22T20:53:35.033Z,33.32
2023-02-22T20:54:35.046Z,33.28
2023-02-22T20:55:35.069Z,33.29
2023-02-22T20:56:35.110Z,33.29
2023-02-22T20:57:35.180Z,33.29
2023-02-22T20:58:35.125Z,33.27
2023-02-22T20:59:35.162Z,33.27
2023-02-22T21:00:35.166Z,33.28
2023-02-22T21:01:35.310Z,33.27
2023-02-22T21:02:35.216Z,33.26
2023-02-22T21:03:35.319Z,33.26
2023-02-22T21:24:36.233Z,33.13
2023-02-22T21:25:35.720Z,33.11
2023-02-22T21:26:35.774Z,33.14
2023-02-22T21:27:35.853Z,33.16
2023-02-22T21:28:50.480Z,33.16
